Time;durP1;ratioP1;P1;durP2;ratioP2;P2;SDS_P1;SDS_P2;PMS_P1;PMS_P2;Temp;Humidity;BMP_temperature;BMP_pressure;BME280_temperature;BME280_humidity;BME280_pressure;Samples;Min_cycle;Max_cycle;Signal;HPM_P1;HPM_P2
2022/04/29 00:02:09;;;;;;;4.18;1.00;;;28.10;87.10;;;;;;5100965;28;20051;-47
2022/04/29 00:04:38;;;;;;;3.38;1.42;;;28.10;86.90;;;;;;5084921;28;20266;-44
2022/04/29 00:07:07;;;;;;;6.40;0.98;;;28.00;87.10;;;;;;5086331;28;20048;-49
2022/04/29 00:09:34;;;;;;;3.47;0.93;;;28.00;86.90;;;;;;5095275;28;20073;-42
2022/04/29 00:12:02;;;;;;;3.85;0.90;;;27.90;86.30;;;;;;5083779;28;20020;-46
2022/04/29 00:14:30;;;;;;;2.83;0.93;;;27.90;86.30;;;;;;5085439;28;20032;-46
2022/04/29 00:16:57;;;;;;;1.63;0.80;;;27.90;86.60;;;;;;5085043;28;20019;-42
2022/04/29 00:19:24;;;;;;;3.17;0.90;;;27.80;86.70;;;;;;5085597;28;20035;-46
2022/04/29 00:21:51;;;;;;;3.03;1.17;;;27.80;87.40;;;;;;5068358;28;20020;-46
2022/04/29 00:24:19;;;;;;;3.25;1.05;;;27.80;87.70;;;;;;5085338;28;20020;-46
2022/04/29 00:26:45;;;;;;;2.33;1.02;;;27.80;88.10;;;;;;5084790;28;20023;-44
2022/04/29 00:29:15;;;;;;;2.47;1.00;;;27.70;88.20;;;;;;5087121;28;20029;-52
2022/04/29 00:31:42;;;;;;;1.58;1.08;;;27.70;88.50;;;;;;5093490;28;20048;-55
2022/04/29 00:34:08;;;;;;;2.50;1.15;;;27.70;89.00;;;;;;5097955;28;20260;-54
2022/04/29 00:36:35;;;;;;;1.67;1.35;;;27.70;89.10;;;;;;5091012;28;20328;-46
2022/04/29 00:39:03;;;;;;;3.40;1.35;;;27.70;89.40;;;;;;5096672;28;20223;-43
2022/04/29 00:41:32;;;;;;;4.05;1.45;;;27.70;89.50;;;;;;5104566;28;20023;-42
2022/04/29 00:44:15;;;;;;;2.83;1.55;;;27.70;89.70;;;;;;5103384;28;20099;-44
2022/04/29 00:46:45;;;;;;;3.35;1.30;;;27.70;90.00;;;;;;5101224;28;20024;-52
2022/04/29 00:49:15;;;;;;;4.25;1.15;;;27.70;89.80;;;;;;5104971;28;20101;-45
2022/04/29 00:51:51;;;;;;;3.50;1.27;;;27.70;89.60;;;;;;5103467;28;20035;-51
2022/04/29 00:54:27;;;;;;;5.57;1.48;;;27.70;89.60;;;;;;5103619;28;20028;-46
2022/04/29 00:56:55;;;;;;;4.60;1.10;;;27.80;90.00;;;;;;5096984;28;20048;-45
2022/04/29 00:59:47;;;;;;;2.45;1.02;;;27.80;89.70;;;;;;5091433;28;20024;-45
2022/04/29 01:02:15;;;;;;;;;;;27.80;89.80;;;;;;5084445;28;20309;-45
2022/04/29 01:05:02;;;;;;;2.63;1.00;;;27.80;89.70;;;;;;5084141;28;19912;-42
2022/04/29 01:07:30;;;;;;;4.93;1.35;;;27.70;89.90;;;;;;5083017;28;20091;-42
2022/04/29 01:09:57;;;;;;;5.45;1.40;;;27.70;89.90;;;;;;5083987;28;20028;-46
2022/04/29 01:12:27;;;;;;;2.50;1.40;;;27.70;90.00;;;;;;5083823;28;20313;-57
2022/04/29 01:14:56;;;;;;;5.45;1.27;;;27.70;90.20;;;;;;5093401;28;20048;-42
2022/04/29 01:17:23;;;;;;;3.38;1.20;;;27.80;90.30;;;;;;5083568;28;20024;-45
2022/04/29 01:19:53;;;;;;;4.97;1.30;;;27.70;90.20;;;;;;5083965;28;20016;-42
2022/04/29 01:22:19;;;;;;;5.72;1.50;;;27.70;90.10;;;;;;5083196;28;20021;-45
2022/04/29 01:24:48;;;;;;;2.47;1.20;;;27.80;90.30;;;;;;5098730;28;20020;-50
2022/04/29 01:27:15;;;;;;;3.35;1.10;;;27.70;90.00;;;;;;5082836;28;20024;-47
2022/04/29 01:29:44;;;;;;;2.53;0.80;;;27.70;90.00;;;;;;5082648;28;20217;-45
2022/04/29 01:32:11;;;;;;;3.67;1.20;;;27.70;89.80;;;;;;5082663;28;20313;-42
2022/04/29 01:34:39;;;;;;;7.88;2.70;;;27.70;89.90;;;;;;5083044;28;20059;-46
2022/04/29 01:37:06;;;;;;;14.63;7.53;;;27.70;90.00;;;;;;5082631;28;20025;-44
2022/04/29 01:39:33;;;;;;;11.05;6.05;;;27.80;89.90;;;;;;5083501;28;20016;-46
2022/04/29 01:42:02;;;;;;;9.57;4.50;;;27.70;89.60;;;;;;5083565;28;20024;-42
2022/04/29 01:44:29;;;;;;;7.85;3.30;;;27.70;89.40;;;;;;5084070;28;20027;-47
2022/04/29 01:46:57;;;;;;;6.28;2.38;;;27.70;89.30;;;;;;5083607;28;20317;-53
2022/04/29 01:49:24;;;;;;;5.65;1.90;;;27.70;88.90;;;;;;5084142;28;20238;-44
2022/04/29 01:51:50;;;;;;;7.82;1.60;;;27.60;88.30;;;;;;5083267;28;20052;-44
2022/04/29 01:54:17;;;;;;;6.05;1.30;;;27.60;88.30;;;;;;5084185;28;20029;-44
2022/04/29 01:56:44;;;;;;;6.55;1.30;;;27.60;88.50;;;;;;5086707;28;20020;-48
2022/04/29 01:59:11;;;;;;;7.95;1.35;;;27.60;88.50;;;;;;5087957;28;20096;-44
2022/04/29 02:01:37;;;;;;;7.15;1.60;;;27.60;88.40;;;;;;5087538;28;20020;-47
2022/04/29 02:04:04;;;;;;;8.57;1.55;;;27.60;88.40;;;;;;5087946;28;20025;-47
2022/04/29 02:06:30;;;;;;;10.48;3.75;;;27.70;88.80;;;;;;5087123;28;20061;-45
2022/04/29 02:08:57;;;;;;;9.15;3.47;;;27.70;89.10;;;;;;5087762;28;20035;-47
2022/04/29 02:11:24;;;;;;;6.22;2.60;;;27.80;88.90;;;;;;5087413;28;20072;-45
2022/04/29 02:13:50;;;;;;;5.82;2.70;;;27.80;88.80;;;;;;5087525;28;20033;-50
2022/04/29 02:16:18;;;;;;;6.95;2.33;;;27.70;88.70;;;;;;5096750;28;20032;-45
2022/04/29 02:18:44;;;;;;;6.70;1.73;;;27.80;89.00;;;;;;5107926;28;20016;-50
2022/04/29 02:21:11;;;;;;;6.20;2.00;;;27.80;89.10;;;;;;5102789;28;20248;-54
2022/04/29 02:23:37;;;;;;;6.93;1.80;;;27.80;89.10;;;;;;5096210;28;20031;-47
2022/04/29 02:26:04;;;;;;;8.45;3.33;;;27.80;89.10;;;;;;5099485;28;20035;-44
2022/04/29 02:28:32;;;;;;;8.35;3.28;;;27.80;88.90;;;;;;5088800;28;20038;-47
2022/04/29 02:31:00;;;;;;;8.30;2.35;;;27.80;88.80;;;;;;5086976;28;20024;-48
2022/04/29 02:33:28;;;;;;;8.57;2.40;;;27.80;88.80;;;;;;5086812;28;20040;-47
2022/04/29 02:35:55;;;;;;;7.38;1.98;;;27.80;88.70;;;;;;5086663;28;20024;-43
2022/04/29 02:38:22;;;;;;;4.68;1.80;;;27.80;88.70;;;;;;5096566;28;20032;-49
2022/04/29 02:40:51;;;;;;;8.63;2.08;;;27.80;88.70;;;;;;5091885;28;20015;-46
2022/04/29 02:43:18;;;;;;;6.18;1.50;;;27.80;88.80;;;;;;5086929;28;20032;-47
2022/04/29 02:45:46;;;;;;;6.25;1.40;;;27.80;88.70;;;;;;5093835;28;20390;-50
2022/04/29 02:48:15;;;;;;;6.40;1.55;;;27.80;88.90;;;;;;5094016;28;20028;-50
2022/04/29 02:50:42;;;;;;;3.72;1.30;;;27.80;88.70;;;;;;5104834;28;20242;-49
2022/04/29 02:53:09;;;;;;;4.22;1.42;;;27.80;88.60;;;;;;5107048;28;20081;-46
2022/04/29 02:55:35;;;;;;;5.28;1.50;;;27.80;88.70;;;;;;5106825;28;20068;-46
2022/04/29 02:58:02;;;;;;;5.82;1.45;;;27.80;88.50;;;;;;5106969;28;20019;-46
2022/04/29 03:00:28;;;;;;;4.63;1.30;;;27.80;88.60;;;;;;5106751;28;20038;-43
2022/04/29 03:02:55;;;;;;;6.97;1.50;;;27.80;88.40;;;;;;5106860;28;20020;-45
2022/04/29 03:05:22;;;;;;;5.10;1.23;;;27.80;88.40;;;;;;5106022;28;20309;-49
2022/04/29 03:07:48;;;;;;;4.28;1.10;;;27.80;88.50;;;;;;5106686;28;20031;-49
2022/04/29 03:10:15;;;;;;;4.22;1.02;;;27.80;88.40;;;;;;5106633;28;20026;-48
2022/04/29 03:12:41;;;;;;;5.22;1.13;;;27.80;88.20;;;;;;5098092;28;20043;-48
2022/04/29 03:15:18;;;;;;;6.82;1.30;;;27.80;88.30;;;;;;5098792;28;20057;-44
2022/04/29 03:20:35;;;;;;;2.78;0.80;;;27.80;88.20;;;;;;5106141;28;20020;-49
2022/04/29 03:23:03;;;;;;;2.47;0.70;;;27.70;88.10;;;;;;5100264;28;20092;-48
2022/04/29 03:25:29;;;;;;;4.35;0.80;;;27.70;88.00;;;;;;5085835;28;20039;-44
2022/04/29 03:27:56;;;;;;;2.92;1.08;;;27.70;87.80;;;;;;5085758;28;20025;-49
2022/04/29 03:30:22;;;;;;;4.82;1.00;;;27.80;88.10;;;;;;5084356;28;20028;-46
2022/04/29 03:32:54;;;;;;;5.22;0.90;;;27.70;88.20;;;;;;5094920;28;20208;-46
2022/04/29 03:35:21;;;;;;;2.33;0.80;;;27.70;88.20;;;;;;5093172;28;20291;-48
2022/04/29 03:37:53;;;;;;;8.73;1.10;;;27.70;88.30;;;;;;5092967;28;20027;-46
2022/04/29 03:40:24;;;;;;;5.40;0.90;;;27.70;88.00;;;;;;5096278;28;20016;-48
2022/04/29 03:42:55;;;;;;;5.22;0.98;;;27.70;88.00;;;;;;5096539;28;20073;-47
2022/04/29 03:45:24;;;;;;;4.75;0.70;;;27.70;87.80;;;;;;5099883;28;20057;-49
2022/04/29 03:47:52;;;;;;;4.15;0.80;;;27.70;87.60;;;;;;5094370;28;20024;-47
2022/04/29 03:50:19;;;;;;;3.42;0.60;;;27.70;87.10;;;;;;5094172;28;20017;-45
2022/04/29 03:52:53;;;;;;;7.72;0.82;;;27.70;87.10;;;;;;5096895;28;20043;-53
2022/04/29 03:55:22;;;;;;;4.63;0.82;;;27.70;86.80;;;;;;5105781;28;20020;-47
2022/04/29 03:57:50;;;;;;;5.82;1.02;;;27.70;86.80;;;;;;5105812;28;20035;-49
2022/04/29 04:00:17;;;;;;;4.63;0.90;;;27.70;86.70;;;;;;5105070;28;20024;-48
2022/04/29 04:02:43;;;;;;;5.28;0.80;;;27.70;86.40;;;;;;5105604;28;20031;-49
2022/04/29 04:05:10;;;;;;;2.45;0.70;;;27.70;86.50;;;;;;5105236;28;20012;-44
2022/04/29 04:07:37;;;;;;;2.75;0.80;;;27.70;86.40;;;;;;5105258;28;20247;-46
2022/04/29 04:10:05;;;;;;;4.55;0.70;;;27.60;86.30;;;;;;5105389;28;20220;-44
2022/04/29 04:12:42;;;;;;;2.67;0.77;;;27.60;86.40;;;;;;5104565;28;20358;-45
2022/04/29 04:15:11;;;;;;;4.40;0.70;;;27.60;85.90;;;;;;5103128;28;20083;-43
2022/04/29 04:17:38;;;;;;;5.88;0.80;;;27.70;85.80;;;;;;5093220;28;20035;-47
2022/04/29 04:20:06;;;;;;;3.33;0.60;;;27.60;85.60;;;;;;5084691;28;20017;-44
2022/04/29 04:22:36;;;;;;;6.25;0.52;;;27.70;85.40;;;;;;5084773;28;20044;-50
2022/04/29 04:25:08;;;;;;;3.53;0.70;;;27.70;85.30;;;;;;5097532;28;20038;-45
2022/04/29 04:27:34;;;;;;;;;;;27.70;85.30;;;;;;5099981;28;20081;-47
2022/04/29 04:30:01;;;;;;;3.58;0.63;;;27.70;85.20;;;;;;5096275;28;19907;-46
2022/04/29 04:32:28;;;;;;;5.45;0.70;;;27.60;85.30;;;;;;5104979;28;20020;-47
2022/04/29 04:35:00;;;;;;;3.83;0.70;;;27.60;85.40;;;;;;5101489;28;20039;-47
2022/04/29 04:37:28;;;;;;;7.40;0.70;;;27.60;85.50;;;;;;5095669;28;20062;-44
2022/04/29 04:39:58;;;;;;;2.20;0.65;;;27.60;85.70;;;;;;5084718;28;20062;-47
2022/04/29 04:42:25;;;;;;;1.77;0.45;;;27.60;86.10;;;;;;5099747;28;20087;-46
2022/04/29 04:44:53;;;;;;;5.50;0.60;;;27.60;86.30;;;;;;5104789;28;20080;-49
2022/04/29 04:47:20;;;;;;;2.72;0.63;;;27.70;86.20;;;;;;5104689;28;20024;-47
2022/04/29 04:49:47;;;;;;;4.43;0.70;;;27.60;86.10;;;;;;5104251;28;20024;-45
2022/04/29 04:52:14;;;;;;;4.30;0.90;;;27.60;86.20;;;;;;5104594;28;20019;-52
2022/04/29 04:54:40;;;;;;;4.10;0.60;;;27.60;86.20;;;;;;5104534;28;20020;-43
2022/04/29 04:57:07;;;;;;;7.38;0.80;;;27.60;86.30;;;;;;5104413;28;20204;-47
2022/04/29 04:59:34;;;;;;;4.30;0.80;;;27.60;86.40;;;;;;5095583;28;20028;-54
2022/04/29 05:02:00;;;;;;;3.42;0.80;;;27.60;86.50;;;;;;5094038;28;20023;-46
2022/04/29 05:04:27;;;;;;;4.90;0.82;;;27.60;86.70;;;;;;5093767;28;20058;-47
2022/04/29 05:06:54;;;;;;;2.47;1.00;;;27.60;86.90;;;;;;5092130;28;20190;-51
2022/04/29 05:09:20;;;;;;;8.60;0.80;;;27.60;87.70;;;;;;5094334;28;20027;-44
2022/04/29 05:11:47;;;;;;;4.72;1.00;;;27.60;87.40;;;;;;5093244;28;20123;-46
2022/04/29 05:14:14;;;;;;;5.82;0.93;;;27.60;87.50;;;;;;5092286;28;20040;-54
2022/04/29 05:16:40;;;;;;;7.88;0.90;;;27.60;88.30;;;;;;5093842;28;20204;-44
2022/04/29 05:19:07;;;;;;;3.30;0.93;;;27.60;88.50;;;;;;5093514;28;20084;-45
2022/04/29 05:21:33;;;;;;;2.75;0.77;;;27.60;88.20;;;;;;5091931;28;20024;-47
2022/04/29 05:24:00;;;;;;;2.85;0.90;;;27.60;88.30;;;;;;5094186;28;20200;-43
2022/04/29 05:26:26;;;;;;;5.05;0.90;;;27.60;88.50;;;;;;5095694;28;20012;-53
2022/04/29 05:28:53;;;;;;;5.00;0.80;;;27.50;88.50;;;;;;5104442;28;20036;-50
2022/04/29 05:31:20;;;;;;;6.60;0.80;;;27.50;88.50;;;;;;5104131;28;20020;-51
2022/04/29 05:33:46;;;;;;;8.98;1.00;;;27.50;88.60;;;;;;5103862;28;20048;-47
2022/04/29 05:36:13;;;;;;;5.10;0.93;;;27.50;88.70;;;;;;5104079;28;20309;-48
2022/04/29 05:44:12;;;;;;;4.50;1.10;;;27.50;89.00;;;;;;5104431;28;20031;-48
2022/04/29 05:46:38;;;;;;;3.83;0.60;;;27.40;89.10;;;;;;5104160;28;20016;-50
2022/04/29 05:49:05;;;;;;;6.63;0.98;;;27.40;89.10;;;;;;5104356;28;20028;-51
2022/04/29 05:51:33;;;;;;;2.92;0.80;;;27.40;89.20;;;;;;5103898;28;20031;-44
2022/04/29 05:54:00;;;;;;;4.10;0.80;;;27.40;89.30;;;;;;5104012;28;20056;-46
2022/04/29 05:56:28;;;;;;;3.95;0.70;;;27.40;89.20;;;;;;5103893;28;20023;-48
2022/04/29 05:58:55;;;;;;;3.75;0.70;;;27.40;89.40;;;;;;5104261;28;20024;-47
2022/04/29 06:01:21;;;;;;;5.03;1.05;;;27.30;89.40;;;;;;5103729;28;20027;-53
2022/04/29 06:03:48;;;;;;;4.50;0.82;;;27.30;89.50;;;;;;5104099;28;20055;-52
2022/04/29 06:06:15;;;;;;;4.93;0.95;;;27.30;89.60;;;;;;5103807;28;20031;-47
2022/04/29 06:08:42;;;;;;;4.43;0.75;;;27.30;89.60;;;;;;5103884;28;20034;-47
2022/04/29 06:11:08;;;;;;;2.20;0.70;;;27.30;89.60;;;;;;5103797;28;20028;-44
2022/04/29 06:13:37;;;;;;;2.20;0.70;;;27.30;89.70;;;;;;5103921;28;20024;-47
2022/04/29 06:16:05;;;;;;;3.67;0.85;;;27.30;89.70;;;;;;5103546;28;20011;-43
2022/04/29 06:18:32;;;;;;;9.93;1.15;;;27.30;89.90;;;;;;5104144;28;20354;-48
2022/04/29 06:20:59;;;;;;;3.15;0.80;;;27.30;90.00;;;;;;5103627;28;20057;-45
2022/04/29 06:23:26;;;;;;;8.05;1.10;;;27.20;89.90;;;;;;5103716;28;20030;-50
2022/04/29 06:25:53;;;;;;;7.13;0.98;;;27.20;90.00;;;;;;5103697;28;20242;-46
2022/04/29 06:28:20;;;;;;;5.90;0.73;;;27.20;90.00;;;;;;5103749;28;20035;-45
2022/04/29 06:30:47;;;;;;;5.15;0.95;;;27.20;90.10;;;;;;5103391;28;20087;-47
2022/04/29 06:33:13;;;;;;;3.50;0.80;;;27.20;90.20;;;;;;5103418;28;20061;-51
2022/04/29 06:35:43;;;;;;;5.03;0.90;;;27.20;90.20;;;;;;5103601;28;20064;-49
2022/04/29 06:38:12;;;;;;;5.63;0.85;;;27.10;90.30;;;;;;5103425;28;20067;-50
2022/04/29 06:40:39;;;;;;;8.30;0.90;;;27.10;90.30;;;;;;5104171;28;20077;-47
2022/04/29 06:43:06;;;;;;;7.55;0.90;;;27.10;90.30;;;;;;5107277;28;20342;-45
2022/04/29 06:45:32;;;;;;;2.83;0.80;;;27.10;90.30;;;;;;5106939;28;20209;-45
2022/04/29 06:47:59;;;;;;;5.00;0.60;;;27.10;90.30;;;;;;5107277;28;20027;-47
2022/04/29 06:50:25;;;;;;;4.20;1.13;;;27.10;90.30;;;;;;5106955;28;20020;-47
2022/04/29 06:52:52;;;;;;;4.68;0.70;;;27.10;90.30;;;;;;5106781;28;20209;-46
2022/04/29 06:55:19;;;;;;;3.83;0.85;;;27.10;90.30;;;;;;5106860;28;20079;-49
2022/04/29 06:57:46;;;;;;;6.15;0.95;;;27.10;90.30;;;;;;5106929;28;20024;-46
2022/04/29 07:00:14;;;;;;;4.68;0.82;;;27.10;90.20;;;;;;5106651;28;20024;-54
2022/04/29 07:02:41;;;;;;;5.95;0.80;;;27.10;90.10;;;;;;5106805;28;20066;-50
2022/04/29 07:05:09;;;;;;;7.45;1.10;;;27.10;90.00;;;;;;5106684;28;20087;-49
2022/04/29 07:07:35;;;;;;;7.80;0.90;;;27.10;89.70;;;;;;5106529;28;20155;-44
2022/04/29 07:10:02;;;;;;;4.00;0.50;;;27.00;89.50;;;;;;5106623;28;20020;-44
2022/04/29 07:12:31;;;;;;;5.35;0.77;;;27.00;89.10;;;;;;5106605;28;20056;-44
2022/04/29 07:14:58;;;;;;;5.20;0.60;;;27.10;89.00;;;;;;5106284;28;20065;-44
2022/04/29 07:17:24;;;;;;;2.00;0.60;;;27.10;88.90;;;;;;5106498;28;20012;-48
2022/04/29 07:19:51;;;;;;;4.93;0.77;;;27.10;88.90;;;;;;5106527;28;20027;-45
2022/04/29 07:22:18;;;;;;;2.67;0.50;;;27.10;89.00;;;;;;5106278;28;20012;-48
2022/04/29 07:24:45;;;;;;;2.90;0.80;;;27.10;88.80;;;;;;5106335;28;20024;-45
2022/04/29 07:27:15;;;;;;;4.25;0.80;;;27.10;88.80;;;;;;5106260;28;20016;-49
2022/04/29 07:29:42;;;;;;;5.25;0.70;;;27.10;88.80;;;;;;5106220;28;20016;-46
2022/04/29 07:32:09;;;;;;;3.13;1.05;;;27.10;88.80;;;;;;5106226;28;20039;-51
2022/04/29 07:42:51;;;;;;;5.93;1.10;;;27.00;89.30;;;;;;5106198;28;20046;-45
2022/04/29 07:45:17;;;;;;;6.55;1.15;;;27.00;89.40;;;;;;5105922;28;20122;-48
2022/04/29 07:47:44;;;;;;;2.50;0.90;;;27.00;89.50;;;;;;5105861;28;20368;-51
2022/04/29 07:50:12;;;;;;;2.60;0.80;;;27.00;89.50;;;;;;5105816;28;20027;-46
2022/04/29 07:52:39;;;;;;;6.07;0.90;;;27.00;89.70;;;;;;5105693;28;20227;-51
2022/04/29 07:55:06;;;;;;;3.47;0.90;;;26.90;89.80;;;;;;5105631;28;20079;-45
2022/04/29 07:57:33;;;;;;;1.40;0.70;;;27.00;89.90;;;;;;5105789;28;20207;-46
2022/04/29 08:00:00;;;;;;;3.08;0.70;;;27.00;90.00;;;;;;5105641;28;20312;-48
2022/04/29 08:02:26;;;;;;;3.50;1.17;;;27.00;90.00;;;;;;5105374;28;20212;-51
2022/04/29 08:04:53;;;;;;;2.92;0.80;;;27.00;90.10;;;;;;5105604;28;20084;-48
2022/04/29 08:07:19;;;;;;;4.35;1.35;;;27.00;90.10;;;;;;5105582;28;20027;-46
2022/04/29 08:09:46;;;;;;;7.68;1.10;;;27.00;90.20;;;;;;5105354;28;20026;-48
2022/04/29 08:12:13;;;;;;;5.30;0.73;;;27.00;90.20;;;;;;5105356;28;20040;-45
2022/04/29 08:14:40;;;;;;;4.70;0.90;;;26.90;90.20;;;;;;5105265;28;20016;-47
2022/04/29 08:17:07;;;;;;;3.72;0.85;;;26.90;90.30;;;;;;5105167;28;20020;-47
2022/04/29 08:19:34;;;;;;;4.18;0.70;;;26.90;90.30;;;;;;5105832;28;20073;-44
2022/04/29 08:22:01;;;;;;;3.72;0.93;;;26.90;90.30;;;;;;5105168;28;20019;-49
2022/04/29 08:24:28;;;;;;;3.75;1.02;;;26.90;90.40;;;;;;5104947;28;20055;-44
2022/04/29 08:26:54;;;;;;;3.35;0.80;;;26.90;90.50;;;;;;5105148;28;20043;-46
2022/04/29 08:29:21;;;;;;;3.63;0.98;;;26.90;90.60;;;;;;5105571;28;20262;-46
2022/04/29 08:31:48;;;;;;;6.75;1.00;;;26.90;90.60;;;;;;5104944;28;20047;-49
2022/04/29 08:34:17;;;;;;;3.03;0.88;;;26.90;90.60;;;;;;5097910;28;20210;-47
2022/04/29 08:36:47;;;;;;;3.40;1.08;;;26.90;90.60;;;;;;5084754;28;20024;-51
2022/04/29 08:39:13;;;;;;;8.00;1.00;;;26.90;90.70;;;;;;5084828;28;20084;-50
2022/04/29 08:41:42;;;;;;;6.25;1.08;;;26.90;90.70;;;;;;5084935;28;20024;-48
2022/04/29 08:44:13;;;;;;;6.10;0.88;;;26.90;90.70;;;;;;5084926;28;20032;-50
2022/04/29 08:46:41;;;;;;;3.28;0.82;;;26.90;90.70;;;;;;5084367;28;20020;-47
2022/04/29 08:49:08;;;;;;;8.23;1.02;;;26.80;90.70;;;;;;5084795;28;20036;-46
2022/04/29 08:51:37;;;;;;;4.05;1.20;;;26.80;90.80;;;;;;5084365;28;20039;-46
2022/04/29 08:54:04;;;;;;;6.75;1.00;;;26.80;90.80;;;;;;5084555;28;20297;-52
2022/04/29 08:59:25;;;;;;;3.78;0.80;;;26.80;91.00;;;;;;5084785;28;20032;-50
2022/04/29 09:01:52;;;;;;;3.83;0.90;;;26.70;91.00;;;;;;5084301;28;20021;-48
2022/04/29 09:04:19;;;;;;;3.72;0.88;;;26.80;91.30;;;;;;5084128;28;20095;-51
2022/04/29 09:06:49;;;;;;;6.43;1.13;;;26.70;91.10;;;;;;5084194;28;20033;-46
2022/04/29 09:09:21;;;;;;;5.45;1.08;;;26.70;91.10;;;;;;5084519;28;20048;-46
2022/04/29 09:11:48;;;;;;;3.10;0.90;;;26.70;91.00;;;;;;5083986;28;20055;-47
2022/04/29 09:14:20;;;;;;;5.18;1.00;;;26.70;90.90;;;;;;5084519;28;20021;-46
2022/04/29 09:16:49;;;;;;;6.35;1.00;;;26.70;90.80;;;;;;5084174;28;20028;-45
2022/04/29 09:19:36;;;;;;;3.10;0.90;;;26.70;90.80;;;;;;5084350;28;20021;-52
2022/04/29 09:22:10;;;;;;;4.35;0.80;;;26.60;90.70;;;;;;5084009;28;20088;-51
2022/04/29 09:24:36;;;;;;;4.50;1.10;;;26.70;90.70;;;;;;5083931;28;20039;-44
2022/04/29 09:27:05;;;;;;;4.05;0.70;;;26.60;90.60;;;;;;5084653;28;20070;-45
2022/04/29 09:29:41;;;;;;;4.35;0.70;;;26.60;90.50;;;;;;5084381;28;20032;-45
2022/04/29 09:32:08;;;;;;;3.25;0.77;;;26.60;90.40;;;;;;5083847;28;20024;-46
2022/04/29 09:34:46;;;;;;;4.55;0.73;;;26.60;90.40;;;;;;5083670;28;20337;-46
2022/04/29 09:37:20;;;;;;;2.97;0.65;;;26.60;90.40;;;;;;5083648;28;20309;-48
2022/04/29 09:39:54;;;;;;;5.00;0.80;;;26.60;90.40;;;;;;5083759;28;20377;-50
2022/04/29 09:42:21;;;;;;;3.78;0.85;;;26.50;90.40;;;;;;5083637;28;20022;-48
2022/04/29 09:44:48;;;;;;;6.28;0.80;;;26.60;90.40;;;;;;5083729;28;20046;-47
2022/04/29 09:47:17;;;;;;;9.93;0.90;;;26.50;90.30;;;;;;5083664;28;20024;-50
2022/04/29 09:49:54;;;;;;;6.25;0.85;;;26.50;90.30;;;;;;5083624;28;20088;-47
2022/04/29 09:52:21;;;;;;;3.50;0.65;;;26.50;90.40;;;;;;5083809;28;20020;-53
2022/04/29 09:54:48;;;;;;;5.82;0.90;;;26.50;90.50;;;;;;5083612;28;20024;-45
2022/04/29 09:57:22;;;;;;;7.75;0.88;;;26.50;90.50;;;;;;5083525;28;20328;-53
2022/04/29 09:59:53;;;;;;;5.25;1.00;;;26.50;90.50;;;;;;5083629;28;20021;-45
2022/04/29 10:02:22;;;;;;;4.55;0.90;;;26.40;90.50;;;;;;5083377;28;20205;-48
2022/04/29 10:04:50;;;;;;;4.70;0.80;;;26.40;90.60;;;;;;5083680;28;20092;-45
2022/04/29 10:07:19;;;;;;;6.32;0.80;;;26.40;90.60;;;;;;5083492;28;20027;-50
2022/04/29 10:09:53;;;;;;;5.50;1.08;;;26.40;90.60;;;;;;5083416;28;20025;-45
2022/04/29 10:12:26;;;;;;;4.07;0.85;;;26.40;90.60;;;;;;5083560;28;20269;-45
2022/04/29 10:14:58;;;;;;;5.38;0.88;;;26.40;90.60;;;;;;5083286;28;20044;-50
2022/04/29 10:23:13;;;;;;;6.25;1.35;;;26.30;90.60;;;;;;5087446;28;20124;-50
2022/04/29 10:25:44;;;;;;;5.10;1.20;;;26.30;90.40;;;;;;5086001;28;20016;-48
2022/04/29 10:28:16;;;;;;;9.38;1.30;;;26.30;90.30;;;;;;5087418;28;20028;-49
2022/04/29 10:30:43;;;;;;;;;;;26.30;90.10;;;;;;5087380;28;20035;-47
2022/04/29 10:33:22;;;;;;;6.72;1.10;;;26.30;90.00;;;;;;5086975;28;19987;-54
2022/04/29 10:35:53;;;;;;;6.80;0.90;;;26.30;90.00;;;;;;5087067;28;20092;-47
2022/04/29 10:38:23;;;;;;;8.15;1.02;;;26.30;89.90;;;;;;5087046;28;20036;-50
2022/04/29 10:41:18;;;;;;;4.97;1.00;;;26.30;89.80;;;;;;5087059;28;20012;-44
2022/04/29 10:43:48;;;;;;;9.63;1.48;;;26.30;89.70;;;;;;5087338;28;20032;-48
2022/04/29 10:46:21;;;;;;;10.93;1.40;;;26.30;89.90;;;;;;5086696;28;20016;-54
2022/04/29 10:48:54;;;;;;;5.72;1.33;;;26.30;89.80;;;;;;5093501;28;20069;-50
2022/04/29 10:51:30;;;;;;;8.75;1.65;;;26.30;89.60;;;;;;5086790;28;20090;-47
2022/04/29 10:53:58;;;;;;;5.35;1.40;;;26.30;89.50;;;;;;5086869;28;20031;-47
2022/04/29 10:56:30;;;;;;;9.52;1.40;;;26.30;89.40;;;;;;5086605;28;20267;-49
2022/04/29 10:59:12;;;;;;;7.15;1.83;;;26.30;89.50;;;;;;5086956;28;20032;-47
2022/04/29 11:01:40;;;;;;;8.68;2.53;;;26.30;89.20;;;;;;5086706;28;20009;-52
2022/04/29 11:04:16;;;;;;;11.50;3.58;;;26.30;89.30;;;;;;5086507;28;20032;-46
2022/04/29 11:06:45;;;;;;;9.90;3.70;;;26.30;89.30;;;;;;5086352;28;20341;-45
2022/04/29 11:09:36;;;;;;;;;;;26.30;89.40;;;;;;5086375;28;20078;-52
2022/04/29 11:12:03;;;;;;;;;;;26.30;89.50;;;;;;5086200;28;19928;-47
2022/04/29 11:14:29;;;;;;;;;;;26.40;89.50;;;;;;5086498;28;19912;-46
2022/04/29 11:17:10;;;;;;;;;;;26.40;89.50;;;;;;5085771;28;24075;-50
2022/04/29 11:19:40;;;;;;;;;;;26.50;89.40;;;;;;5085871;28;19913;-43
2022/04/29 11:24:52;;;;;;;;;;;26.60;89.20;;;;;;5085813;28;19916;-43
2022/04/29 11:27:25;;;;;;;;;;;26.70;89.00;;;;;;5085426;28;20184;-45
2022/04/29 11:29:52;;;;;;;;;;;26.80;88.80;;;;;;5085889;28;19912;-46
2022/04/29 11:32:25;;;;;;;;;;;26.90;88.50;;;;;;5085465;28;20204;-50
2022/04/29 11:34:55;;;;;;;;;;;27.00;88.10;;;;;;5085252;28;19916;-47
2022/04/29 11:37:25;;;;;;;;;;;27.10;87.70;;;;;;5085257;28;20181;-49
2022/04/29 11:39:55;;;;;;;;;;;27.10;87.80;;;;;;5085518;28;19900;-51
2022/04/29 11:42:21;;;;;;;;;;;27.00;88.20;;;;;;5084768;28;25081;-46
2022/04/29 11:44:49;;;;;;;;;;;27.00;88.50;;;;;;5085374;28;20115;-47
2022/04/29 11:47:16;;;;;;;;;;;26.90;88.50;;;;;;5085280;28;19958;-49
2022/04/29 11:49:43;;;;;;;;;;;26.90;88.50;;;;;;5085054;28;19901;-48
2022/04/29 11:52:25;;;;;;;;;;;26.90;88.60;;;;;;5085223;28;19901;-50
2022/04/29 11:54:58;;;;;;;;;;;26.90;88.60;;;;;;5085739;28;19950;-49
2022/04/29 11:57:26;;;;;;;;;;;26.90;88.60;;;;;;5085822;28;19907;-46
2022/04/29 11:59:52;;;;;;;;;;;26.90;89.00;;;;;;5084905;28;19936;-50
2022/04/29 12:02:20;;;;;;;;;;;26.90;89.20;;;;;;5084620;28;19971;-47
2022/04/29 12:05:01;;;;;;;;;;;26.90;89.00;;;;;;5084744;28;19963;-47
2022/04/29 12:07:28;;;;;;;;;;;26.90;89.10;;;;;;5084642;28;19901;-57
2022/04/29 12:09:54;;;;;;;;;;;26.90;89.10;;;;;;5084682;28;24076;-48
2022/04/29 12:12:31;;;;;;;;;;;26.90;89.30;;;;;;5083626;28;19901;-49
2022/04/29 12:15:01;;;;;;;;;;;26.90;89.60;;;;;;5084410;28;19905;-44
2022/04/29 12:17:45;;;;;;;;;;;26.90;90.10;;;;;;5084868;28;20261;-49
2022/04/29 12:20:15;;;;;;;;;;;26.90;90.40;;;;;;5092156;28;19954;-50
2022/04/29 12:22:42;;;;;;;;;;;26.90;90.50;;;;;;5105081;28;19915;-52
2022/04/29 12:25:25;;;;;;;;;;;26.90;90.60;;;;;;5093290;28;19926;-51
2022/04/29 12:28:09;;;;;;;;;;;26.90;90.70;;;;;;5089578;28;20135;-53
2022/04/29 12:36:06;;;;;;;;;;;26.90;90.80;;;;;;5084274;28;19914;-47
2022/04/29 12:38:34;;;;;;;;;;;26.90;90.90;;;;;;5083880;28;19912;-49
2022/04/29 12:41:13;;;;;;;;;;;26.80;90.90;;;;;;5084189;28;19901;-48
2022/04/29 12:43:43;;;;;;;;;;;26.90;91.00;;;;;;5084310;28;19908;-51
2022/04/29 12:46:13;;;;;;;;;;;26.90;91.00;;;;;;5084284;28;19901;-48
2022/04/29 12:48:44;;;;;;;;;;;26.90;91.10;;;;;;5084372;28;19908;-47
2022/04/29 12:51:24;;;;;;;;;;;26.90;91.10;;;;;;5084128;28;19900;-48
2022/04/29 12:53:51;;;;;;;;;;;26.90;91.10;;;;;;5084381;28;19936;-45
2022/04/29 12:56:31;;;;;;;;;;;27.00;91.20;;;;;;5084579;28;19943;-46
2022/04/29 12:58:58;;;;;;;;;;;27.00;91.10;;;;;;5084086;28;24064;-49
2022/04/29 13:01:24;;;;;;;;;;;27.00;91.10;;;;;;5083823;28;20231;-51
2022/04/29 13:03:52;;;;;;;;;;;27.00;91.10;;;;;;5092186;28;19935;-47
2022/04/29 13:06:20;;;;;;;;;;;27.00;91.00;;;;;;5092046;28;19978;-45
2022/04/29 13:08:48;;;;;;;;;;;27.00;91.00;;;;;;5082939;28;20282;-47
2022/04/29 13:11:17;;;;;;;;;;;27.10;91.00;;;;;;5083989;28;19950;-50
2022/04/29 13:13:43;;;;;;;;;;;27.10;91.10;;;;;;5084954;28;19912;-47
2022/04/29 13:16:09;;;;;;;;;;;27.10;91.10;;;;;;5083726;28;24114;-55
2022/04/29 13:18:35;;;;;;;;;;;27.10;91.10;;;;;;5084034;28;24051;-47
2022/04/29 13:21:07;;;;;;;;;;;27.10;91.10;;;;;;5083824;28;19907;-44
2022/04/29 13:23:34;;;;;;;;;;;27.10;91.10;;;;;;5083625;28;19916;-45
2022/04/29 13:26:02;;;;;;;;;;;27.10;91.10;;;;;;5083727;28;19900;-46
2022/04/29 13:28:29;;;;;;;;;;;27.20;91.20;;;;;;5083915;28;19950;-47
2022/04/29 13:30:56;;;;;;;;;;;27.20;91.20;;;;;;5083681;28;19908;-51
2022/04/29 13:33:22;;;;;;;;;;;27.20;91.20;;;;;;5083434;28;25089;-49
2022/04/29 13:35:48;;;;;;;;;;;27.30;91.30;;;;;;5083704;28;20078;-52
2022/04/29 13:38:14;;;;;;;;;;;27.30;91.30;;;;;;5083486;28;19947;-47
2022/04/29 13:40:40;;;;;;;;;;;27.20;91.30;;;;;;5083402;28;19945;-53
2022/04/29 13:43:06;;;;;;;;;;;27.30;91.30;;;;;;5083584;28;19950;-48
2022/04/29 13:45:34;;;;;;;;;;;27.30;91.30;;;;;;5090071;28;19907;-49